Time;durP1;ratioP1;P1;durP2;ratioP2;P2;SDS_P1;SDS_P2;PMS_P1;PMS_P2;Temp;Humidity;BMP_temperature;BMP_pressure;BME280_temperature;BME280_humidity;BME280_pressure;Samples;Min_cycle;Max_cycle;Signal;HPM_P1;HPM_P2
2023/09/12 00:00:06;;;;;;;18.47;12.80;;;21.00;19.40;;;;;;5028946;28;20483;-67
2023/09/12 00:02:32;;;;;;;17.33;12.00;;;21.00;19.50;;;;;;5027534;28;20529;-65
2023/09/12 00:04:59;;;;;;;14.90;12.80;;;21.00;19.90;;;;;;5026941;28;21026;-66
2023/09/12 00:07:26;;;;;;;21.87;12.37;;;21.00;20.30;;;;;;5025249;28;20490;-66
2023/09/12 00:09:53;;;;;;;20.67;13.63;;;21.00;19.90;;;;;;5028611;28;20474;-66
2023/09/12 00:12:23;;;;;;;16.93;13.37;;;20.90;20.00;;;;;;5028084;28;21140;-66
2023/09/12 00:14:50;;;;;;;18.53;13.03;;;20.90;20.10;;;;;;5031375;28;20478;-65
2023/09/12 00:17:18;;;;;;;15.50;11.30;;;20.90;19.80;;;;;;5026827;28;20872;-67
2023/09/12 00:19:45;;;;;;;15.13;11.80;;;20.90;19.70;;;;;;5027869;28;20470;-64
2023/09/12 00:22:12;;;;;;;17.00;12.10;;;20.90;19.50;;;;;;5028625;28;20462;-66
2023/09/12 00:24:38;;;;;;;17.33;12.47;;;20.90;19.40;;;;;;5027931;28;20518;-65
2023/09/12 00:27:05;;;;;;;17.73;11.73;;;20.90;19.30;;;;;;5026109;28;20466;-65
2023/09/12 00:29:32;;;;;;;16.80;11.20;;;20.80;19.40;;;;;;5025341;28;20532;-67
2023/09/12 00:31:59;;;;;;;16.50;11.43;;;20.80;19.40;;;;;;5025803;28;20486;-66
2023/09/12 00:34:27;;;;;;;22.63;13.10;;;20.80;19.20;;;;;;5027755;28;20948;-67
2023/09/12 00:36:53;;;;;;;14.73;10.70;;;20.80;19.20;;;;;;5026258;28;20482;-67
2023/09/12 00:39:20;;;;;;;18.60;10.23;;;20.80;18.90;;;;;;5027728;28;20493;-65
2023/09/12 00:41:47;;;;;;;18.40;10.67;;;20.80;18.60;;;;;;5026112;28;20542;-65
2023/09/12 00:44:13;;;;;;;15.60;10.90;;;20.80;18.60;;;;;;5027200;28;20852;-66
2023/09/12 00:46:41;;;;;;;16.50;11.10;;;20.80;18.60;;;;;;5025595;28;20463;-66
2023/09/12 00:49:09;;;;;;;14.40;10.90;;;20.70;18.60;;;;;;5026182;28;20459;-65
2023/09/12 00:51:38;;;;;;;19.20;10.57;;;20.70;18.50;;;;;;5025525;28;20463;-65
2023/09/12 00:54:05;;;;;;;15.90;10.63;;;20.70;18.50;;;;;;5026860;28;20491;-66
2023/09/12 00:56:32;;;;;;;15.73;11.70;;;20.70;18.50;;;;;;5026019;28;20463;-66
2023/09/12 00:58:59;;;;;;;14.90;12.30;;;20.70;18.50;;;;;;5026377;28;20486;-66
2023/09/12 01:01:26;;;;;;;16.17;12.23;;;20.70;19.00;;;;;;5022565;28;20487;-66
2023/09/12 01:03:53;;;;;;;18.90;13.00;;;20.70;19.00;;;;;;5026103;28;20494;-66
2023/09/12 01:06:25;;;;;;;16.70;13.60;;;20.70;19.40;;;;;;5026202;28;20470;-66
2023/09/12 01:08:53;;;;;;;20.23;13.40;;;20.70;19.50;;;;;;5025183;28;20562;-66
2023/09/12 01:11:21;;;;;;;19.80;14.27;;;20.70;20.00;;;;;;5028437;28;20455;-66
2023/09/12 01:13:48;;;;;;;17.93;15.40;;;20.60;20.30;;;;;;5025912;28;20478;-66
2023/09/12 01:16:14;;;;;;;17.97;15.97;;;20.60;20.60;;;;;;5026717;28;20459;-65
2023/09/12 01:18:42;;;;;;;18.87;15.87;;;20.60;21.10;;;;;;5025382;28;20489;-65
2023/09/12 01:21:36;;;;;;;19.63;17.10;;;20.60;21.60;;;;;;5024561;28;20530;-65
2023/09/12 01:24:18;;;;;;;21.60;15.70;;;20.60;22.40;;;;;;5025847;28;20486;-66
2023/09/12 01:26:55;;;;;;;17.70;14.43;;;20.60;22.40;;;;;;5024479;28;20467;-66
2023/09/12 01:29:24;;;;;;;17.30;15.13;;;20.50;22.60;;;;;;5026593;28;20458;-66
2023/09/12 01:31:54;;;;;;;17.50;15.10;;;20.50;22.50;;;;;;5025240;28;20467;-66
2023/09/12 01:34:21;;;;;;;16.23;14.53;;;20.50;22.40;;;;;;5026905;28;20490;-66
2023/09/12 01:36:47;;;;;;;16.60;13.70;;;20.40;22.40;;;;;;5025190;28;20812;-66
2023/09/12 01:39:14;;;;;;;18.27;14.93;;;20.30;22.50;;;;;;5023915;28;20467;-66
2023/09/12 01:41:44;;;;;;;16.20;14.50;;;20.30;22.20;;;;;;5023961;28;20478;-66
2023/09/12 01:44:13;;;;;;;19.50;15.40;;;20.20;22.20;;;;;;5027106;28;20489;-65
2023/09/12 01:46:43;;;;;;;16.33;14.27;;;20.20;22.30;;;;;;5026277;28;20466;-65
2023/09/12 01:49:11;;;;;;;20.23;14.77;;;20.10;22.90;;;;;;5025385;28;20446;-66
2023/09/12 01:51:39;;;;;;;20.50;16.83;;;20.10;22.90;;;;;;5026723;28;20466;-66
2023/09/12 01:54:07;;;;;;;20.03;15.80;;;20.00;23.00;;;;;;5025679;28;21052;-66
2023/09/12 01:56:34;;;;;;;21.10;15.70;;;20.00;23.10;;;;;;5025401;28;20474;-66
2023/09/12 01:59:01;;;;;;;21.60;17.47;;;20.00;23.80;;;;;;5025516;28;20482;-66
2023/09/12 02:01:28;;;;;;;20.37;17.30;;;20.00;23.80;;;;;;5024628;28;20475;-65
2023/09/12 02:03:56;;;;;;;16.13;14.50;;;20.00;23.80;;;;;;5028293;28;21058;-65
2023/09/12 02:06:23;;;;;;;17.63;15.73;;;20.00;23.60;;;;;;5024300;28;20466;-65
2023/09/12 02:08:50;;;;;;;18.83;16.83;;;20.00;23.80;;;;;;5025567;28;20473;-65
2023/09/12 02:11:16;;;;;;;17.27;15.57;;;20.00;23.60;;;;;;5026295;28;20846;-65
2023/09/12 02:13:43;;;;;;;16.90;15.10;;;20.00;23.60;;;;;;5024082;28;20481;-66
2023/09/12 02:16:10;;;;;;;19.03;15.70;;;20.00;23.80;;;;;;5026180;28;20469;-65
2023/09/12 02:18:36;;;;;;;18.07;15.23;;;19.90;23.70;;;;;;5020969;28;20986;-65
2023/09/12 02:21:04;;;;;;;17.30;15.50;;;19.90;23.80;;;;;;5024159;28;20486;-65
2023/09/12 02:23:31;;;;;;;20.47;16.50;;;19.90;23.50;;;;;;5026862;28;20487;-65
2023/09/12 02:25:58;;;;;;;18.33;16.30;;;19.90;23.50;;;;;;5025616;28;20686;-65
2023/09/12 02:28:24;;;;;;;20.90;16.10;;;19.80;23.70;;;;;;5021962;28;20467;-65
2023/09/12 02:30:51;;;;;;;17.17;15.37;;;19.80;23.90;;;;;;5025471;28;20466;-65
2023/09/12 02:33:18;;;;;;;21.50;17.10;;;19.80;24.00;;;;;;5026620;28;20483;-65
2023/09/12 02:35:44;;;;;;;17.73;15.77;;;19.70;24.70;;;;;;5029517;28;20466;-66
2023/09/12 02:38:12;;;;;;;18.77;16.93;;;19.70;25.20;;;;;;5029752;28;20982;-66
2023/09/12 02:40:39;;;;;;;18.20;16.20;;;19.70;25.20;;;;;;5029743;28;20465;-66
2023/09/12 02:43:06;;;;;;;17.87;16.00;;;19.70;25.20;;;;;;5027630;28;20458;-66
2023/09/12 02:45:32;;;;;;;19.17;16.33;;;19.60;25.50;;;;;;5027389;28;20970;-65
2023/09/12 02:47:59;;;;;;;17.87;15.40;;;19.60;25.60;;;;;;5030623;28;20463;-65
2023/09/12 02:50:26;;;;;;;18.60;14.97;;;19.60;25.90;;;;;;5027138;28;20470;-65
2023/09/12 02:52:52;;;;;;;18.37;15.60;;;19.50;25.90;;;;;;5021743;28;20454;-65
2023/09/12 02:55:20;;;;;;;18.07;15.87;;;19.50;25.90;;;;;;5028242;28;20467;-65
2023/09/12 02:57:47;;;;;;;18.30;16.40;;;19.50;26.00;;;;;;5029326;28;20486;-65
2023/09/12 03:00:14;;;;;;;18.90;16.50;;;19.40;26.20;;;;;;5028000;28;20487;-65
2023/09/12 03:02:41;;;;;;;18.97;17.03;;;19.40;26.30;;;;;;5028189;28;20478;-65
2023/09/12 03:05:09;;;;;;;21.07;16.93;;;19.40;26.30;;;;;;5025629;28;21003;-65
2023/09/12 03:07:35;;;;;;;18.60;16.60;;;19.40;26.60;;;;;;5025117;28;20464;-65
2023/09/12 03:10:03;;;;;;;19.50;17.00;;;19.40;26.50;;;;;;5030268;28;20467;-65
2023/09/12 03:12:31;;;;;;;18.17;16.27;;;19.40;26.60;;;;;;5028571;28;20505;-65
2023/09/12 03:14:58;;;;;;;19.67;15.53;;;19.30;26.80;;;;;;5034478;28;21050;-65
2023/09/12 03:17:24;;;;;;;18.30;16.50;;;19.30;27.00;;;;;;5025743;28;20474;-65
2023/09/12 03:19:51;;;;;;;19.40;17.40;;;19.20;27.00;;;;;;5032542;28;20940;-66
2023/09/12 03:22:18;;;;;;;18.03;16.23;;;19.20;26.90;;;;;;5025966;28;20465;-66
2023/09/12 03:24:45;;;;;;;19.70;16.63;;;19.20;27.20;;;;;;5027140;28;20479;-65
2023/09/12 03:27:12;;;;;;;17.30;15.50;;;19.20;27.40;;;;;;5030110;28;20470;-65
2023/09/12 03:29:40;;;;;;;19.10;17.10;;;19.20;27.30;;;;;;5027942;28;20467;-65
2023/09/12 03:32:07;;;;;;;19.43;17.40;;;19.20;27.60;;;;;;5036307;28;20463;-66
2023/09/12 03:34:33;;;;;;;20.13;16.63;;;19.10;27.90;;;;;;5029607;28;20483;-67
2023/09/12 03:37:00;;;;;;;19.60;16.23;;;19.10;28.00;;;;;;5026470;28;20459;-66
2023/09/12 03:39:27;;;;;;;21.77;16.93;;;19.00;27.70;;;;;;5028709;28;20554;-66
2023/09/12 03:41:53;;;;;;;20.83;16.93;;;19.10;27.70;;;;;;5030997;28;20857;-66
2023/09/12 03:44:20;;;;;;;18.07;15.87;;;19.00;27.60;;;;;;5027321;28;20486;-66
2023/09/12 03:46:48;;;;;;;19.30;17.10;;;19.00;27.60;;;;;;5026405;28;20467;-67
2023/09/12 03:49:15;;;;;;;19.90;17.90;;;19.00;27.70;;;;;;5028189;28;20466;-67
2023/09/12 03:51:41;;;;;;;19.30;17.20;;;19.00;27.80;;;;;;5031994;28;20470;-67
2023/09/12 03:54:08;;;;;;;23.07;16.33;;;19.00;27.90;;;;;;5028134;28;20781;-67
2023/09/12 03:56:35;;;;;;;19.10;15.80;;;19.00;27.80;;;;;;5030677;28;20851;-65
2023/09/12 03:59:02;;;;;;;20.37;17.77;;;19.00;27.90;;;;;;5051778;28;20987;-65
2023/09/12 04:01:29;;;;;;;18.23;16.33;;;19.00;27.70;;;;;;5029174;28;20475;-66
2023/09/12 04:03:57;;;;;;;20.90;16.93;;;19.00;27.80;;;;;;5030290;28;21096;-67
2023/09/12 04:06:24;;;;;;;19.00;17.17;;;19.00;27.60;;;;;;5030619;28;20466;-67
2023/09/12 04:08:51;;;;;;;20.67;16.87;;;19.00;27.80;;;;;;5031418;28;20455;-66
2023/09/12 04:11:17;;;;;;;17.40;14.80;;;19.00;27.50;;;;;;5029072;28;20809;-66
2023/09/12 04:13:44;;;;;;;18.07;15.40;;;18.90;27.60;;;;;;5025727;28;20486;-67
2023/09/12 04:16:11;;;;;;;17.70;15.83;;;18.90;27.40;;;;;;5030122;28;20459;-65
2023/09/12 04:18:38;;;;;;;18.63;16.73;;;18.90;27.30;;;;;;5027891;28;21041;-66
2023/09/12 04:21:06;;;;;;;18.50;16.50;;;18.90;27.20;;;;;;5028739;28;20478;-66
2023/09/12 04:23:32;;;;;;;20.20;15.43;;;18.80;27.20;;;;;;5025458;28;20482;-66
2023/09/12 04:26:03;;;;;;;17.47;15.67;;;18.80;27.10;;;;;;5029010;28;20458;-66
2023/09/12 04:28:29;;;;;;;17.77;15.93;;;18.80;27.00;;;;;;5026633;28;20994;-66
2023/09/12 04:31:02;;;;;;;18.73;16.53;;;18.80;26.90;;;;;;5025690;28;20481;-66
2023/09/12 04:33:29;;;;;;;20.10;16.77;;;18.80;26.90;;;;;;5032845;28;20877;-67
2023/09/12 04:35:59;;;;;;;17.50;15.60;;;18.80;26.60;;;;;;5025710;28;20455;-66
2023/09/12 04:38:27;;;;;;;20.53;16.47;;;18.80;26.60;;;;;;5026196;28;20557;-66
2023/09/12 04:40:55;;;;;;;19.07;17.03;;;18.70;26.50;;;;;;5028598;28;20518;-66
2023/09/12 04:43:21;;;;;;;21.57;17.20;;;18.70;26.50;;;;;;5028302;28;20497;-67
2023/09/12 04:45:48;;;;;;;18.90;16.90;;;18.70;26.50;;;;;;5026351;28;20456;-66
2023/09/12 04:48:15;;;;;;;17.40;15.60;;;18.60;26.40;;;;;;5026336;28;20455;-66
2023/09/12 04:50:42;;;;;;;19.07;16.30;;;18.60;26.50;;;;;;5027809;28;20811;-67
2023/09/12 04:53:09;;;;;;;17.40;15.60;;;18.60;26.50;;;;;;5027181;28;20478;-65
2023/09/12 04:55:37;;;;;;;20.53;16.90;;;18.60;26.70;;;;;;5023027;28;20458;-65
2023/09/12 04:58:05;;;;;;;19.90;17.70;;;18.50;27.10;;;;;;5028376;28;20459;-65
2023/09/12 05:00:32;;;;;;;19.47;17.33;;;18.50;27.20;;;;;;5022914;28;20459;-65
2023/09/12 05:02:59;;;;;;;19.27;16.27;;;18.50;27.50;;;;;;5031993;28;20451;-65
2023/09/12 05:05:26;;;;;;;19.17;17.27;;;18.50;27.60;;;;;;5028701;28;20458;-65
2023/09/12 05:07:52;;;;;;;19.63;17.40;;;18.50;27.30;;;;;;5028880;28;20482;-65
2023/09/12 05:10:19;;;;;;;20.23;18.00;;;18.50;27.30;;;;;;5029837;28;20447;-65
2023/09/12 05:12:47;;;;;;;20.70;17.07;;;18.50;28.20;;;;;;5027223;28;20491;-65
2023/09/12 05:15:14;;;;;;;17.10;15.30;;;18.60;27.80;;;;;;5028238;28;20446;-65
2023/09/12 05:17:41;;;;;;;16.50;14.90;;;18.60;27.40;;;;;;5027458;28;21147;-65
2023/09/12 05:20:09;;;;;;;18.53;16.13;;;18.80;26.90;;;;;;5021411;28;20519;-65
2023/09/12 05:22:35;;;;;;;19.13;16.00;;;18.90;26.10;;;;;;5025677;28;20466;-65
2023/09/12 05:25:02;;;;;;;17.83;15.97;;;19.20;25.60;;;;;;5026533;28;20471;-65
2023/09/12 05:27:29;;;;;;;16.43;14.73;;;19.50;24.70;;;;;;5028198;28;20740;-65
2023/09/12 05:29:57;;;;;;;16.60;14.90;;;19.80;23.70;;;;;;5029393;28;20448;-65
2023/09/12 05:32:24;;;;;;;19.43;15.60;;;20.40;21.80;;;;;;5025070;28;20475;-65
2023/09/12 05:34:51;;;;;;;15.83;13.90;;;20.80;20.60;;;;;;5025570;28;20492;-65
2023/09/12 05:37:18;;;;;;;19.47;15.10;;;21.10;19.90;;;;;;5022334;28;20451;-66
2023/09/12 05:39:45;;;;;;;17.40;14.40;;;21.30;18.90;;;;;;5026727;28;20511;-66
2023/09/12 05:42:12;;;;;;;18.93;14.80;;;21.60;18.10;;;;;;5028061;28;20455;-66
2023/09/12 05:44:39;;;;;;;16.77;14.50;;;21.80;17.70;;;;;;5028093;28;20950;-66
2023/09/12 05:47:07;;;;;;;16.10;14.40;;;22.00;17.30;;;;;;5026254;28;20455;-66
2023/09/12 05:49:34;;;;;;;18.67;15.80;;;22.20;16.80;;;;;;5025213;28;20530;-66
2023/09/12 05:52:02;;;;;;;16.73;14.50;;;22.40;16.40;;;;;;5028134;28;20952;-66
2023/09/12 05:54:29;;;;;;;20.43;15.33;;;22.60;16.60;;;;;;5026920;28;20475;-66
2023/09/12 05:56:55;;;;;;;16.97;14.63;;;22.70;16.30;;;;;;5028057;28;20451;-66
2023/09/12 05:59:22;;;;;;;18.80;16.83;;;22.90;15.70;;;;;;5026930;28;20475;-65
2023/09/12 06:01:49;;;;;;;19.97;16.63;;;23.00;15.30;;;;;;5032711;28;20463;-65
2023/09/12 06:04:17;;;;;;;20.90;15.80;;;23.20;14.10;;;;;;5028899;28;20507;-65
2023/09/12 06:06:44;;;;;;;16.27;14.57;;;23.40;14.10;;;;;;5028672;28;20481;-65
2023/09/12 06:09:11;;;;;;;18.23;15.07;;;23.70;13.60;;;;;;5031731;28;20451;-65
2023/09/12 06:11:44;;;;;;;17.10;14.73;;;24.10;12.70;;;;;;5028693;28;20939;-65
2023/09/12 06:14:10;;;;;;;16.90;14.90;;;24.50;11.60;;;;;;5028356;28;20482;-65
2023/09/12 06:16:37;;;;;;;21.50;13.93;;;24.80;11.10;;;;;;5032830;28;20454;-65
2023/09/12 06:19:04;;;;;;;20.00;14.30;;;25.00;9.70;;;;;;5031048;28;20485;-66
2023/09/12 06:21:32;;;;;;;19.37;14.80;;;25.40;8.90;;;;;;5030050;28;20467;-66
2023/09/12 06:24:11;;;;;;;17.93;14.90;;;26.10;7.70;;;;;;5031858;28;20482;-66
2023/09/12 06:26:38;;;;;;;17.43;14.93;;;27.10;6.20;;;;;;5029838;28;20520;-66
2023/09/12 06:29:05;;;;;;;16.23;14.50;;;28.10;4.30;;;;;;5028623;28;20463;-66
2023/09/12 06:31:32;;;;;;;15.10;13.40;;;29.20;2.20;;;;;;5030827;28;20481;-66
2023/09/12 06:33:58;;;;;;;17.10;13.30;;;30.30;1.00;;;;;;5030934;28;20478;-65
2023/09/12 06:36:25;;;;;;;13.30;11.90;;;31.40;1.00;;;;;;5031377;28;20943;-66
2023/09/12 06:38:54;;;;;;;14.57;13.07;;;32.50;1.00;;;;;;5031945;28;20493;-66
2023/09/12 06:41:20;;;;;;;14.60;13.10;;;33.60;1.00;;;;;;5027238;28;20462;-65
2023/09/12 06:43:47;;;;;;;13.80;12.40;;;34.50;1.00;;;;;;5032911;28;20487;-65
2023/09/12 06:46:17;;;;;;;17.87;12.90;;;35.40;1.00;;;;;;5028248;28;20461;-66
2023/09/12 06:48:44;;;;;;;14.33;12.03;;;36.40;1.00;;;;;;5030973;28;20459;-66
2023/09/12 06:51:11;;;;;;;12.70;11.40;;;37.10;1.00;;;;;;5027888;28;20481;-67
2023/09/12 06:53:37;;;;;;;14.40;12.37;;;37.90;1.00;;;;;;5028641;28;20470;-66
2023/09/12 06:56:06;;;;;;;17.07;11.37;;;38.80;1.00;;;;;;5029648;28;20463;-66
2023/09/12 06:58:33;;;;;;;13.30;11.00;;;39.60;1.00;;;;;;5015895;23;20479;-65
2023/09/12 07:01:04;;;;;;;14.23;11.07;;;40.40;1.00;;;;;;4996181;28;20479;-66
2023/09/12 07:03:30;;;;;;;13.00;11.80;;;41.10;1.00;;;;;;4986938;28;20492;-66
2023/09/12 07:05:58;;;;;;;12.63;11.33;;;42.00;1.00;;;;;;4990736;28;20496;-66
2023/09/12 07:08:25;;;;;;;12.63;11.37;;;42.60;1.00;;;;;;4987567;28;21083;-66
2023/09/12 07:10:54;;;;;;;12.93;11.63;;;43.10;1.00;;;;;;4988899;28;20458;-66
2023/09/12 07:13:22;;;;;;;11.67;10.47;;;43.70;1.00;;;;;;4988292;28;20489;-66
2023/09/12 07:15:49;;;;;;;12.20;10.50;;;44.40;1.00;;;;;;4989607;28;20465;-67
2023/09/12 07:18:16;;;;;;;12.83;10.20;;;45.10;1.00;;;;;;4989311;28;20461;-68
2023/09/12 07:20:42;;;;;;;12.13;10.17;;;45.70;1.00;;;;;;4985042;28;21017;-68
2023/09/12 07:23:09;;;;;;;11.33;10.30;;;46.20;1.00;;;;;;4995052;28;21004;-68
2023/09/12 07:25:40;;;;;;;11.30;10.10;;;46.60;1.00;;;;;;4992271;28;20460;-68
2023/09/12 07:28:07;;;;;;;11.87;10.43;;;46.50;1.00;;;;;;4995639;28;20554;-68
2023/09/12 07:30:35;;;;;;;15.50;11.23;;;46.80;1.00;;;;;;4990625;28;20955;-68
2023/09/12 07:33:02;;;;;;;12.33;10.27;;;46.90;1.00;;;;;;4989953;28;20949;-68
2023/09/12 07:35:30;;;;;;;10.60;9.60;;;47.20;1.00;;;;;;4992590;28;20478;-68
2023/09/12 07:37:57;;;;;;;14.90;9.03;;;47.30;1.00;;;;;;4990035;28;20452;-68
2023/09/12 07:40:23;;;;;;;10.73;8.97;;;47.20;1.00;;;;;;4989915;28;20488;-68
2023/09/12 07:42:50;;;;;;;10.37;9.30;;;47.10;1.00;;;;;;4990795;28;20475;-68
2023/09/12 07:45:17;;;;;;;12.13;8.83;;;47.00;1.00;;;;;;4992874;28;20465;-69
2023/09/12 07:47:45;;;;;;;11.47;10.40;;;47.30;1.00;;;;;;4991001;28;20477;-68
2023/09/12 07:50:11;;;;;;;11.00;9.50;;;47.70;1.00;;;;;;4984335;28;20468;-68
2023/09/12 07:52:38;;;;;;;14.80;9.67;;;48.50;1.00;;;;;;4989624;28;20469;-68
2023/09/12 07:55:06;;;;;;;13.40;9.73;;;48.80;1.00;;;;;;4986301;28;20485;-68
2023/09/12 07:57:34;;;;;;;9.07;8.17;;;48.80;1.00;;;;;;4989693;28;20464;-68
2023/09/12 08:00:00;;;;;;;10.30;9.40;;;49.00;1.00;;;;;;4990261;28;20488;-68
2023/09/12 08:02:27;;;;;;;12.23;9.30;;;49.30;1.00;;;;;;4990720;28;20473;-68
2023/09/12 08:04:55;;;;;;;11.40;9.50;;;49.20;1.00;;;;;;4987813;28;20484;-69
2023/09/12 08:07:22;;;;;;;9.77;8.80;;;49.20;1.00;;;;;;4990146;28;20965;-68
2023/09/12 08:09:51;;;;;;;10.63;9.03;;;49.50;1.00;;;;;;4985028;28;20826;-68
2023/09/12 08:12:18;;;;;;;9.70;8.63;;;49.80;1.00;;;;;;4986540;28;20464;-68
2023/09/12 08:14:45;;;;;;;11.87;9.13;;;50.40;1.00;;;;;;4989348;28;20481;-68
2023/09/12 08:17:12;;;;;;;10.50;9.43;;;50.90;1.00;;;;;;4990583;28;20500;-69
2023/09/12 08:19:38;;;;;;;10.17;8.90;;;51.30;1.00;;;;;;4989998;28;20484;-68
2023/09/12 08:22:10;;;;;;;9.33;8.37;;;51.70;1.00;;;;;;4988956;28;20460;-69
2023/09/12 08:24:37;;;;;;;10.10;8.87;;;51.90;1.00;;;;;;4988804;28;20502;-68
2023/09/12 08:27:04;;;;;;;9.40;8.00;;;52.00;1.00;;;;;;4985971;28;20468;-69
2023/09/12 08:29:32;;;;;;;9.87;8.87;;;51.80;1.00;;;;;;4989158;28;20852;-68
2023/09/12 08:31:58;;;;;;;10.07;9.17;;;51.70;1.00;;;;;;4985812;28;20507;-69
2023/09/12 08:34:25;;;;;;;10.80;9.67;;;51.80;1.00;;;;;;4987692;28;20516;-68
2023/09/12 08:36:52;;;;;;;9.70;8.80;;;51.70;1.00;;;;;;4987903;28;20465;-68
2023/09/12 08:39:28;;;;;;;11.03;9.83;;;51.50;1.00;;;;;;4987072;28;20469;-68
2023/09/12 08:41:55;;;;;;;9.70;8.80;;;51.60;1.00;;;;;;4987838;28;20817;-68
2023/09/12 08:44:22;;;;;;;10.50;8.33;;;52.10;1.00;;;;;;4984038;28;20485;-69
2023/09/12 08:46:49;;;;;;;10.80;9.37;;;52.70;1.00;;;;;;4984057;28;20464;-69
2023/09/12 08:49:17;;;;;;;9.20;8.27;;;52.50;1.00;;;;;;4983738;28;20510;-68
2023/09/12 08:51:44;;;;;;;9.47;8.53;;;52.60;1.00;;;;;;4987323;28;20460;-68
2023/09/12 08:54:11;;;;;;;9.70;8.60;;;52.60;1.00;;;;;;4988263;28;20484;-69
2023/09/12 08:56:42;;;;;;;11.03;9.83;;;52.60;1.00;;;;;;4989546;28;20469;-69
2023/09/12 08:59:10;;;;;;;10.63;9.30;;;52.80;1.00;;;;;;4987105;28;20570;-68
2023/09/12 09:01:37;;;;;;;11.50;9.70;;;53.20;1.00;;;;;;4984518;28;20493;-69
2023/09/12 09:04:05;;;;;;;10.73;9.03;;;53.20;1.00;;;;;;4988284;28;20566;-68
2023/09/12 09:06:37;;;;;;;9.73;8.73;;;51.40;1.00;;;;;;4989421;28;20820;-68
2023/09/12 09:09:05;;;;;;;15.70;10.10;;;49.80;1.00;;;;;;4988078;28;20555;-68
2023/09/12 09:11:32;;;;;;;10.80;9.30;;;49.10;1.00;;;;;;4987379;28;20448;-68
2023/09/12 09:14:00;;;;;;;11.30;10.13;;;48.70;1.00;;;;;;4988767;28;20985;-68
2023/09/12 09:16:27;;;;;;;13.90;10.00;;;48.00;1.00;;;;;;4989275;28;20459;-68
2023/09/12 09:18:55;;;;;;;11.40;10.37;;;48.40;1.00;;;;;;4984838;28;20463;-68
2023/09/12 09:21:25;;;;;;;11.50;9.80;;;48.70;1.00;;;;;;4988646;28;20492;-68
2023/09/12 09:23:52;;;;;;;16.80;10.20;;;49.40;1.00;;;;;;4989124;28;20484;-68
2023/09/12 09:26:19;;;;;;;11.30;9.40;;;50.40;1.00;;;;;;4985078;28;20459;-68
2023/09/12 09:28:45;;;;;;;9.87;8.87;;;51.00;1.00;;;;;;4989242;28;20468;-68
2023/09/12 09:31:14;;;;;;;17.90;10.10;;;51.00;1.00;;;;;;4988357;28;20476;-68
2023/09/12 09:33:45;;;;;;;11.03;9.93;;;50.60;1.00;;;;;;4984817;28;20492;-68
2023/09/12 09:36:12;;;;;;;10.07;9.07;;;50.30;1.00;;;;;;4980200;28;20464;-68
2023/09/12 09:38:41;;;;;;;13.53;10.20;;;50.10;1.00;;;;;;4987374;28;20467;-68
2023/09/12 09:41:07;;;;;;;10.40;8.70;;;50.10;1.00;;;;;;4990259;28;20523;-68
2023/09/12 09:43:34;;;;;;;12.60;9.17;;;50.30;1.00;;;;;;4986858;28;20484;-68
2023/09/12 09:46:01;;;;;;;12.40;9.03;;;50.80;1.00;;;;;;4988541;28;21260;-68
2023/09/12 09:48:31;;;;;;;10.53;8.53;;;50.90;1.00;;;;;;4992509;28;20460;-68
2023/09/12 09:51:02;;;;;;;9.23;8.30;;;50.90;1.00;;;;;;4989327;28;20464;-68
2023/09/12 09:53:29;;;;;;;12.40;9.53;;;51.10;1.00;;;;;;4985701;28;20486;-68
2023/09/12 09:56:10;;;;;;;16.20;8.90;;;51.80;1.00;;;;;;4989777;28;20523;-70
2023/09/12 09:58:37;;;;;;;11.10;8.63;;;52.40;1.00;;;;;;4987900;28;20470;-68
2023/09/12 10:01:07;;;;;;;11.33;8.60;;;52.80;1.00;;;;;;4988540;28;20472;-68
2023/09/12 10:03:37;;;;;;;10.83;9.67;;;53.00;1.00;;;;;;4986188;28;20491;-68
2023/09/12 10:06:06;;;;;;;13.87;9.40;;;53.20;1.00;;;;;;4991883;28;20976;-69
2023/09/12 10:08:34;;;;;;;10.60;9.37;;;53.20;1.00;;;;;;4986286;28;20484;-68
2023/09/12 10:11:01;;;;;;;9.50;8.40;;;52.40;1.00;;;;;;4992446;28;21320;-68
2023/09/12 10:13:32;;;;;;;12.10;9.40;;;51.20;1.00;;;;;;4988657;28;20479;-68
2023/09/12 10:16:01;;;;;;;10.70;9.70;;;50.30;1.00;;;;;;4988934;28;20949;-68
2023/09/12 10:18:32;;;;;;;10.73;9.27;;;49.90;1.00;;;;;;4986549;28;20463;-68
2023/09/12 10:21:09;;;;;;;10.50;8.47;;;50.00;1.00;;;;;;4992675;28;20488;-68
2023/09/12 10:23:41;;;;;;;10.33;9.33;;;50.30;1.00;;;;;;4990224;28;20479;-68
2023/09/12 10:26:11;;;;;;;11.77;9.37;;;50.40;1.00;;;;;;4986629;28;20491;-68
2023/09/12 10:28:39;;;;;;;12.87;9.10;;;50.40;1.00;;;;;;4987590;28;20457;-68
2023/09/12 10:31:07;;;;;;;14.27;9.83;;;50.60;1.00;;;;;;4988430;28;20472;-68
2023/09/12 10:33:34;;;;;;;9.80;8.80;;;50.90;1.00;;;;;;4987771;28;20483;-68
2023/09/12 10:36:04;;;;;;;12.30;9.23;;;50.90;1.00;;;;;;4988255;28;20468;-68
2023/09/12 10:38:33;;;;;;;11.60;10.50;;;50.90;1.00;;;;;;4987080;28;20505;-68
2023/09/12 10:41:01;;;;;;;10.40;8.23;;;50.70;1.00;;;;;;4988916;28;20481;-68
2023/09/12 10:43:29;;;;;;;13.63;7.93;;;50.10;1.00;;;;;;4983242;28;21011;-68
2023/09/12 10:45:57;;;;;;;15.23;9.97;;;49.30;1.00;;;;;;4990485;28;20956;-68
2023/09/12 10:48:24;;;;;;;10.13;8.33;;;48.70;1.00;;;;;;4988170;28;20456;-68
2023/09/12 10:50:51;;;;;;;12.13;8.80;;;48.20;1.00;;;;;;4992378;28;20453;-68
2023/09/12 10:53:24;;;;;;;9.50;8.50;;;47.70;1.00;;;;;;4990074;28;20507;-68
2023/09/12 10:56:00;;;;;;;9.53;8.60;;;47.50;1.00;;;;;;4993375;28;20499;-68
2023/09/12 10:58:27;;;;;;;11.53;7.90;;;46.90;1.00;;;;;;4990918;28;20518;-68
2023/09/12 11:01:25;;;;;;;9.23;8.33;;;45.80;1.00;;;;;;4989727;28;20892;-67
2023/09/12 11:03:52;;;;;;;12.17;8.50;;;44.80;1.00;;;;;;4989205;28;20528;-67
2023/09/12 11:06:23;;;;;;;8.10;7.40;;;44.10;1.00;;;;;;4991312;28;20468;-67
2023/09/12 11:09:21;;;;;;;10.43;8.20;;;43.60;1.00;;;;;;4991464;28;20470;-67
2023/09/12 11:11:49;;;;;;;8.43;7.63;;;43.10;1.00;;;;;;4984168;28;21065;-67
2023/09/12 11:14:16;;;;;;;8.73;7.93;;;42.50;1.00;;;;;;4993504;28;20480;-67
2023/09/12 11:16:44;;;;;;;9.30;8.40;;;42.00;1.00;;;;;;4988686;28;20473;-67
2023/09/12 11:19:19;;;;;;;9.50;8.60;;;41.60;1.00;;;;;;4989593;28;20532;-67
2023/09/12 11:21:47;;;;;;;9.23;8.23;;;41.10;1.00;;;;;;4988569;28;21283;-67
2023/09/12 11:24:15;;;;;;;8.43;7.57;;;40.50;1.00;;;;;;4986290;28;21047;-67
2023/09/12 11:26:57;;;;;;;9.37;7.50;;;40.00;1.00;;;;;;4989240;28;20467;-67
2023/09/12 11:29:28;;;;;;;8.53;7.63;;;39.60;1.00;;;;;;4988305;28;20508;-67
2023/09/12 11:31:58;;;;;;;11.43;8.50;;;39.20;1.00;;;;;;4989636;28;20469;-67
2023/09/12 11:34:28;;;;;;;12.97;7.70;;;39.00;1.00;;;;;;4987845;28;20505;-67
2023/09/12 11:37:00;;;;;;;10.00;9.00;;;38.90;1.00;;;;;;4990711;28;20468;-67
2023/09/12 11:39:30;;;;;;;9.77;8.70;;;38.50;1.00;;;;;;4991182;28;20472;-67
2023/09/12 11:41:59;;;;;;;10.30;9.20;;;38.10;1.00;;;;;;4990945;28;20481;-66
2023/09/12 11:44:26;;;;;;;11.13;8.53;;;37.70;1.00;;;;;;4990797;28;20515;-66
2023/09/12 11:46:54;;;;;;;11.30;9.47;;;37.50;1.00;;;;;;4993587;28;20985;-66
2023/09/12 11:49:21;;;;;;;13.00;8.57;;;37.30;1.00;;;;;;4989154;28;20822;-67
2023/09/12 11:51:49;;;;;;;10.90;9.47;;;37.00;1.00;;;;;;4988694;28;20461;-66
2023/09/12 11:54:18;;;;;;;11.70;9.00;;;36.60;1.00;;;;;;4988597;28;20484;-66
2023/09/12 11:56:45;;;;;;;9.40;8.40;;;36.30;1.00;;;;;;4991108;28;21005;-66
2023/09/12 11:59:13;;;;;;;10.70;9.60;;;36.00;1.00;;;;;;4990658;28;20469;-66
2023/09/12 12:01:40;;;;;;;9.30;8.27;;;35.80;1.00;;;;;;4990949;28;20484;-66
2023/09/12 12:04:07;;;;;;;10.20;8.50;;;35.60;1.00;;;;;;4986270;28;20523;-66
2023/09/12 12:06:35;;;;;;;10.37;8.93;;;35.50;1.00;;;;;;4989532;28;20465;-66
2023/09/12 12:09:04;;;;;;;10.40;8.57;;;35.30;1.00;;;;;;4987192;28;20838;-66
2023/09/12 12:11:31;;;;;;;8.90;8.10;;;35.30;1.00;;;;;;4990113;28;20542;-66
2023/09/12 12:13:57;;;;;;;9.57;7.80;;;35.20;1.00;;;;;;4989930;28;20477;-66
2023/09/12 12:16:27;;;;;;;11.90;9.00;;;35.00;1.00;;;;;;4988219;28;20472;-66
2023/09/12 12:18:55;;;;;;;10.70;8.67;;;35.00;1.00;;;;;;4988334;28;20465;-66
2023/09/12 12:21:22;;;;;;;10.80;8.87;;;34.90;1.00;;;;;;4987888;28;20898;-66
2023/09/12 12:23:58;;;;;;;14.33;8.43;;;34.80;1.00;;;;;;4987843;28;20489;-66
2023/09/12 12:26:26;;;;;;;9.97;8.90;;;34.70;1.00;;;;;;4986579;28;20464;-66
2023/09/12 12:28:53;;;;;;;9.90;8.77;;;34.60;1.00;;;;;;4989830;28;20457;-66
2023/09/12 12:31:20;;;;;;;12.50;7.83;;;34.40;1.00;;;;;;4988383;28;20476;-66
2023/09/12 12:33:50;;;;;;;11.00;8.50;;;34.30;1.00;;;;;;4986632;28;20480;-66
2023/09/12 12:36:17;;;;;;;10.23;7.67;;;34.20;1.00;;;;;;4986867;28;20511;-66
2023/09/12 12:38:47;;;;;;;8.30;7.50;;;34.10;1.00;;;;;;4990124;28;20457;-66